Time;durP1;ratioP1;P1;durP2;ratioP2;P2;SDS_P1;SDS_P2;PMS_P1;PMS_P2;Temp;Humidity;BMP_temperature;BMP_pressure;BME280_temperature;BME280_humidity;BME280_pressure;Samples;Min_cycle;Max_cycle;Signal;HPM_P1;HPM_P2
2021/11/09 00:01:43;;;;;;;64.27;34.23;;;;;;;;;;4431161;32;20666;-55
2021/11/09 00:04:09;;;;;;;49.20;28.20;;;;;;;;;;4419230;32;20246;-56
2021/11/09 00:06:42;;;;;;;58.63;27.23;;;;;;;;;;4429707;32;20240;-56
2021/11/09 00:09:11;;;;;;;56.57;26.80;;;;;;;;;;4434613;32;20242;-56
2021/11/09 00:11:37;;;;;;;47.43;24.40;;;;;;;;;;4434438;32;20704;-55
2021/11/09 00:14:03;;;;;;;55.63;24.10;;;;;;;;;;4434180;32;20272;-56
2021/11/09 00:16:30;;;;;;;53.27;24.70;;;;;;;;;;4433217;32;20258;-56
2021/11/09 00:18:58;;;;;;;50.23;23.63;;;;;;;;;;4434554;32;20284;-56
2021/11/09 00:21:24;;;;;;;55.67;26.63;;;;;;;;;;4434197;32;20232;-55
2021/11/09 00:23:49;;;;;;;46.57;24.27;;;;;;;;;;4434435;32;20310;-56
2021/11/09 00:26:16;;;;;;;54.30;25.73;;;;;;;;;;4433656;32;20259;-55
2021/11/09 00:28:42;;;;;;;52.97;27.40;;;;;;;;;;4434174;32;20228;-57
2021/11/09 00:31:09;;;;;;;49.73;26.03;;;;;;;;;;4432987;32;20362;-55
2021/11/09 00:33:35;;;;;;;43.00;25.83;;;;;;;;;;4434750;32;20233;-55
2021/11/09 00:36:00;;;;;;;54.57;24.33;;;;;;;;;;4433962;32;20252;-56
2021/11/09 00:38:26;;;;;;;57.00;21.30;;;;;;;;;;4434152;32;20315;-57
2021/11/09 00:40:53;;;;;;;42.90;19.53;;;;;;;;;;4433814;32;20283;-55
2021/11/09 00:43:19;;;;;;;39.03;17.47;;;;;;;;;;4433732;32;20297;-55
2021/11/09 00:45:46;;;;;;;37.43;18.77;;;;;;;;;;4433828;32;20396;-56
2021/11/09 00:48:12;;;;;;;32.70;18.10;;;;;;;;;;4433924;32;20228;-55
2021/11/09 00:50:40;;;;;;;32.80;18.07;;;;;;;;;;4432646;32;20311;-57
2021/11/09 00:53:07;;;;;;;35.90;18.40;;;;;;;;;;4433500;32;20295;-54
2021/11/09 00:55:34;;;;;;;42.23;18.87;;;;;;;;;;4433730;32;20275;-56
2021/11/09 00:57:59;;;;;;;36.70;18.17;;;;;;;;;;4433275;32;20268;-56
2021/11/09 01:00:28;;;;;;;30.23;16.37;;;;;;;;;;4433617;32;20291;-56
2021/11/09 01:02:54;;;;;;;32.13;17.23;;;;;;;;;;4433554;32;20668;-55
2021/11/09 01:05:23;;;;;;;32.70;17.10;;;;;;;;;;4433704;32;20594;-56
2021/11/09 01:08:01;;;;;;;33.83;16.10;;;;;;;;;;4420035;32;20261;-56
2021/11/09 01:10:29;;;;;;;29.70;15.93;;;;;;;;;;4434225;32;20313;-55
2021/11/09 01:12:56;;;;;;;32.10;18.40;;;;;;;;;;4433888;32;20601;-55
2021/11/09 01:15:23;;;;;;;34.77;18.03;;;;;;;;;;4434127;32;20682;-55
2021/11/09 01:17:49;;;;;;;32.60;18.50;;;;;;;;;;4433982;32;20718;-55
2021/11/09 01:20:18;;;;;;;39.83;17.30;;;;;;;;;;4433441;32;20225;-55
2021/11/09 01:22:46;;;;;;;35.27;17.13;;;;;;;;;;4433450;32;20240;-56
2021/11/09 01:25:12;;;;;;;33.13;17.03;;;;;;;;;;4432817;32;20737;-55
2021/11/09 01:27:38;;;;;;;40.50;16.97;;;;;;;;;;4432937;32;20225;-55
2021/11/09 01:30:07;;;;;;;37.47;18.70;;;;;;;;;;4433131;32;20645;-56
2021/11/09 01:32:32;;;;;;;34.63;15.77;;;;;;;;;;4433231;32;20225;-55
2021/11/09 01:34:58;;;;;;;29.00;16.50;;;;;;;;;;4433328;32;20335;-56
2021/11/09 01:37:23;;;;;;;22.70;14.17;;;;;;;;;;4433276;32;20701;-55
2021/11/09 01:39:49;;;;;;;35.13;14.97;;;;;;;;;;4433083;32;20299;-56
2021/11/09 01:42:14;;;;;;;37.33;15.20;;;;;;;;;;4432594;32;20280;-57
2021/11/09 01:44:40;;;;;;;27.10;12.90;;;;;;;;;;4433377;32;20667;-56
2021/11/09 01:47:05;;;;;;;26.83;12.43;;;;;;;;;;4433048;32;20356;-55
2021/11/09 01:49:31;;;;;;;22.60;11.00;;;;;;;;;;4433466;32;20334;-55
2021/11/09 01:51:58;;;;;;;21.90;10.70;;;;;;;;;;4432590;32;20608;-55
2021/11/09 01:54:23;;;;;;;24.23;10.53;;;;;;;;;;4433671;32;20287;-56
2021/11/09 01:56:49;;;;;;;22.37;11.37;;;;;;;;;;4435993;32;20233;-56
2021/11/09 01:59:14;;;;;;;21.47;12.20;;;;;;;;;;4436327;32;20676;-56
2021/11/09 02:01:41;;;;;;;25.30;12.10;;;;;;;;;;4435714;32;20677;-56
2021/11/09 02:04:08;;;;;;;33.43;13.63;;;;;;;;;;4435604;32;20368;-55
2021/11/09 02:06:34;;;;;;;18.67;12.63;;;;;;;;;;4435747;32;20338;-57
2021/11/09 02:09:13;;;;;;;34.73;17.10;;;;;;;;;;4435857;32;20267;-56
2021/11/09 02:11:38;;;;;;;29.90;13.37;;;;;;;;;;4435963;32;20232;-56
2021/11/09 02:14:04;;;;;;;26.23;15.70;;;;;;;;;;4436644;32;20296;-57
2021/11/09 02:16:31;;;;;;;27.60;15.40;;;;;;;;;;4436344;32;20224;-55
2021/11/09 02:18:57;;;;;;;26.50;15.03;;;;;;;;;;4436156;32;20267;-55
2021/11/09 02:21:23;;;;;;;28.03;14.20;;;;;;;;;;4435773;32;20300;-56
2021/11/09 02:23:49;;;;;;;28.83;15.73;;;;;;;;;;4435853;32;20781;-57
2021/11/09 02:26:17;;;;;;;41.80;15.97;;;;;;;;;;4435239;32;20237;-57
2021/11/09 02:28:44;;;;;;;31.03;14.03;;;;;;;;;;4434993;32;20228;-57
2021/11/09 02:31:10;;;;;;;45.03;19.13;;;;;;;;;;4435840;32;20245;-56
2021/11/09 02:33:36;;;;;;;34.57;16.83;;;;;;;;;;4436230;32;20316;-56
2021/11/09 02:36:03;;;;;;;30.03;17.37;;;;;;;;;;4435791;32;20244;-55
2021/11/09 02:38:29;;;;;;;25.83;15.70;;;;;;;;;;4435834;32;20208;-55
2021/11/09 02:40:56;;;;;;;30.23;16.17;;;;;;;;;;4434210;32;20334;-56
2021/11/09 02:43:22;;;;;;;36.07;17.67;;;;;;;;;;4436163;32;20275;-55
2021/11/09 02:48:53;;;;;;;30.10;17.03;;;;;;;;;;4435691;32;20790;-56
2021/11/09 02:51:23;;;;;;;33.40;19.47;;;;;;;;;;4435408;32;20590;-56
2021/11/09 02:56:46;;;;;;;37.93;19.07;;;;;;;;;;4410799;32;20266;-56
2021/11/09 03:01:56;;;;;;;33.53;19.83;;;;;;;;;;4435334;32;20236;-56
2021/11/09 03:07:11;;;;;;;43.30;22.03;;;;;;;;;;4433938;32;20246;-55
2021/11/09 03:09:59;;;;;;;39.13;21.27;;;;;;;;;;4435267;32;20276;-55
2021/11/09 03:12:39;;;;;;;40.90;18.97;;;;;;;;;;4435470;32;20232;-55
2021/11/09 03:15:08;;;;;;;32.27;17.37;;;;;;;;;;4435052;32;20271;-56
2021/11/09 03:17:40;;;;;;;35.83;16.60;;;;;;;;;;4435150;32;20653;-56
2021/11/09 03:20:09;;;;;;;42.07;19.20;;;;;;;;;;4435107;32;20737;-56
2021/11/09 03:44:57;;;;;;;33.13;16.23;;;;;;;;;;4419596;32;20239;-55
2021/11/09 03:47:23;;;;;;;32.97;16.87;;;;;;;;;;4433417;32;20267;-56
2021/11/09 03:49:50;;;;;;;30.30;14.73;;;;;;;;;;4434626;32;20355;-56
2021/11/09 03:52:22;;;;;;;24.60;15.33;;;;;;;;;;4434250;32;20295;-56
2021/11/09 03:54:53;;;;;;;34.43;17.37;;;;;;;;;;4433403;32;20780;-55
2021/11/09 04:05:20;;;;;;;35.87;16.10;;;;;;;;;;4411975;32;20260;-55
2021/11/09 04:13:04;;;;;;;25.07;15.33;;;;;;;;;;4434676;32;20816;-55
2021/11/09 05:01:30;;;;;;;26.67;14.83;;;;;;;;;;4370499;32;20245;-56
2021/11/09 05:09:37;;;;;;;40.17;18.57;;;;;;;;;;4418367;32;20219;-54
2021/11/09 05:12:03;;;;;;;38.10;23.20;;;;;;;;;;4418146;32;20254;-55
2021/11/09 05:14:30;;;;;;;43.20;22.30;;;;;;;;;;4418286;32;20355;-55
2021/11/09 05:16:56;;;;;;;39.23;21.37;;;;;;;;;;4418125;32;20297;-56
2021/11/09 05:19:22;;;;;;;36.80;20.90;;;;;;;;;;4418282;32;20308;-56
2021/11/09 05:21:47;;;;;;;38.73;22.33;;;;;;;;;;4418404;32;20249;-55
2021/11/09 05:24:13;;;;;;;44.80;26.73;;;;;;;;;;4422559;32;20284;-55
2021/11/09 05:26:41;;;;;;;48.17;24.80;;;;;;;;;;4433158;32;20240;-55
2021/11/09 05:29:07;;;;;;;45.07;25.10;;;;;;;;;;4432754;32;20748;-55
2021/11/09 05:31:33;;;;;;;31.77;22.07;;;;;;;;;;4433486;32;20232;-56
2021/11/09 05:33:59;;;;;;;41.90;24.50;;;;;;;;;;4433380;32;20332;-55
2021/11/09 05:36:37;;;;;;;47.83;23.80;;;;;;;;;;4433376;32;20247;-55
2021/11/09 05:39:13;;;;;;;42.23;22.27;;;;;;;;;;4433486;32;20296;-55
2021/11/09 05:41:40;;;;;;;40.50;23.60;;;;;;;;;;4433045;32;20283;-55
2021/11/09 05:44:09;;;;;;;44.23;24.17;;;;;;;;;;4432071;32;20316;-56
2021/11/09 05:46:36;;;;;;;56.00;32.17;;;;;;;;;;4433254;32;20237;-55
2021/11/09 05:49:03;;;;;;;65.33;31.90;;;;;;;;;;4433246;32;20193;-55
2021/11/09 05:51:28;;;;;;;42.37;23.93;;;;;;;;;;4433616;32;20264;-55
2021/11/09 05:53:55;;;;;;;45.77;24.40;;;;;;;;;;4433197;32;20335;-57
2021/11/09 05:56:20;;;;;;;49.20;29.60;;;;;;;;;;4433153;32;20405;-56
2021/11/09 05:58:46;;;;;;;50.13;25.00;;;;;;;;;;4433180;32;20350;-57
2021/11/09 06:01:11;;;;;;;44.97;24.83;;;;;;;;;;4433114;32;20277;-56
2021/11/09 06:03:37;;;;;;;42.23;27.03;;;;;;;;;;4433508;32;20228;-56
2021/11/09 06:06:03;;;;;;;62.13;35.47;;;;;;;;;;4432867;32;20652;-56
2021/11/09 06:08:28;;;;;;;60.60;35.40;;;;;;;;;;4433559;32;20296;-57
2021/11/09 06:10:54;;;;;;;55.07;34.03;;;;;;;;;;4433252;32;20315;-56
2021/11/09 06:13:19;;;;;;;68.47;37.23;;;;;;;;;;4433364;32;20351;-56
2021/11/09 06:15:45;;;;;;;67.57;36.40;;;;;;;;;;4433308;32;20295;-55
2021/11/09 06:18:11;;;;;;;57.03;36.50;;;;;;;;;;4432984;32;20346;-57
2021/11/09 06:20:36;;;;;;;64.03;38.03;;;;;;;;;;4433117;32;20295;-55
2021/11/09 06:23:02;;;;;;;66.10;37.73;;;;;;;;;;4432944;32;20236;-55
2021/11/09 06:25:28;;;;;;;73.67;38.10;;;;;;;;;;4432528;32;20309;-57
2021/11/09 06:27:53;;;;;;;64.10;34.60;;;;;;;;;;4432843;32;20704;-56
2021/11/09 06:30:20;;;;;;;60.83;37.27;;;;;;;;;;4431389;32;20346;-56
2021/11/09 06:32:46;;;;;;;68.10;36.67;;;;;;;;;;4423403;32;20309;-55
2021/11/09 06:35:12;;;;;;;68.50;37.57;;;;;;;;;;4419966;32;20348;-56
2021/11/09 06:37:37;;;;;;;67.20;35.63;;;;;;;;;;4432982;32;20236;-54
2021/11/09 06:40:05;;;;;;;59.63;36.53;;;;;;;;;;4433733;32;20299;-55
2021/11/09 06:42:32;;;;;;;67.03;37.97;;;;;;;;;;4434491;32;20244;-55
2021/11/09 06:44:57;;;;;;;68.57;38.67;;;;;;;;;;4433327;32;20366;-55
2021/11/09 06:47:23;;;;;;;59.73;31.97;;;;;;;;;;4432201;32;20312;-54
2021/11/09 06:49:48;;;;;;;67.90;34.77;;;;;;;;;;4431909;32;20368;-55
2021/11/09 06:52:14;;;;;;;75.63;34.27;;;;;;;;;;4432082;32;20708;-56
2021/11/09 06:54:41;;;;;;;82.47;42.70;;;;;;;;;;4431787;32;20763;-56
2021/11/09 06:57:06;;;;;;;65.17;33.70;;;;;;;;;;4431815;32;20451;-56
2021/11/09 06:59:32;;;;;;;72.80;34.13;;;;;;;;;;4432405;32;20296;-57
2021/11/09 07:01:57;;;;;;;55.37;29.87;;;;;;;;;;4433928;32;20275;-56
2021/11/09 07:04:23;;;;;;;56.87;31.27;;;;;;;;;;4432280;32;20303;-58
2021/11/09 07:06:49;;;;;;;58.87;30.80;;;;;;;;;;4433613;32;20229;-54
2021/11/09 07:09:15;;;;;;;63.10;30.90;;;;;;;;;;4433494;32;20347;-55
2021/11/09 07:11:42;;;;;;;50.73;29.70;;;;;;;;;;4433811;32;20229;-55
2021/11/09 07:14:08;;;;;;;51.10;29.33;;;;;;;;;;4434182;32;20331;-55
2021/11/09 07:16:34;;;;;;;52.50;27.80;;;;;;;;;;4433943;32;20320;-55
2021/11/09 07:19:03;;;;;;;47.13;27.80;;;;;;;;;;4433375;32;20330;-56
2021/11/09 07:21:30;;;;;;;40.40;20.80;;;;;;;;;;4433262;32;20566;-56
2021/11/09 07:23:57;;;;;;;35.40;22.83;;;;;;;;;;4431490;32;20292;-55
2021/11/09 07:26:23;;;;;;;45.63;22.67;;;;;;;;;;4432150;32;20458;-55
2021/11/09 07:28:49;;;;;;;40.93;20.77;;;;;;;;;;4430064;32;20373;-56
2021/11/09 07:31:16;;;;;;;50.20;23.80;;;;;;;;;;4430380;32;20273;-55
2021/11/09 07:33:42;;;;;;;36.90;21.67;;;;;;;;;;4430560;32;20229;-56
2021/11/09 07:36:08;;;;;;;38.23;20.97;;;;;;;;;;4430297;32;20297;-54
2021/11/09 07:38:34;;;;;;;31.97;20.67;;;;;;;;;;4430380;32;20345;-55
2021/11/09 07:40:59;;;;;;;35.17;20.27;;;;;;;;;;4429966;32;20831;-55
2021/11/09 07:43:25;;;;;;;40.90;22.70;;;;;;;;;;4429963;32;20702;-56
2021/11/09 07:45:50;;;;;;;38.30;22.27;;;;;;;;;;4430421;32;20352;-55
2021/11/09 07:48:16;;;;;;;36.47;19.93;;;;;;;;;;4429979;32;20307;-54
2021/11/09 07:50:42;;;;;;;32.47;19.40;;;;;;;;;;4429973;32;20924;-55
2021/11/09 07:53:12;;;;;;;37.97;18.90;;;;;;;;;;4429386;32;20276;-56
2021/11/09 07:55:41;;;;;;;38.00;19.10;;;;;;;;;;4429941;32;20247;-56
2021/11/09 07:58:12;;;;;;;32.07;18.87;;;;;;;;;;4430212;32;20360;-55
2021/11/09 08:00:40;;;;;;;29.17;16.23;;;;;;;;;;4429818;32;20263;-56
2021/11/09 08:09:11;;;;;;;26.83;16.00;;;;;;;;;;4432891;32;20598;-56
2021/11/09 08:11:08;;;;;;;36.17;16.20;;;;;;;;;;4421659;32;20270;-56
2021/11/09 08:13:33;;;;;;;40.53;15.93;;;;;;;;;;4433095;32;20679;-55
2021/11/09 08:15:59;;;;;;;37.07;18.17;;;;;;;;;;4432856;32;20312;-55
2021/11/09 08:18:24;;;;;;;32.50;15.70;;;;;;;;;;4433213;32;20296;-56
2021/11/09 08:20:50;;;;;;;30.73;14.97;;;;;;;;;;4432714;32;20288;-56
2021/11/09 08:23:16;;;;;;;25.57;15.87;;;;;;;;;;4432942;32;20293;-55
2021/11/09 08:25:41;;;;;;;22.97;14.63;;;;;;;;;;4432195;32;20288;-55
2021/11/09 08:28:07;;;;;;;33.37;17.40;;;;;;;;;;4431431;32;20370;-56
2021/11/09 08:30:32;;;;;;;35.37;18.60;;;;;;;;;;4431592;32;20308;-54
2021/11/09 08:32:59;;;;;;;27.73;15.50;;;;;;;;;;4432230;32;20256;-55
2021/11/09 08:35:26;;;;;;;30.80;15.30;;;;;;;;;;4432754;32;20554;-56
2021/11/09 08:37:52;;;;;;;35.07;16.87;;;;;;;;;;4433070;32;20236;-55
2021/11/09 08:40:23;;;;;;;32.60;15.13;;;;;;;;;;4432861;32;20676;-55
2021/11/09 08:42:53;;;;;;;26.87;14.07;;;;;;;;;;4432504;32;20259;-56
2021/11/09 08:47:54;;;;;;;24.03;13.07;;;;;;;;;;4433575;32;20653;-55
2021/11/09 08:50:21;;;;;;;23.70;14.43;;;;;;;;;;4432872;32;20224;-55
2021/11/09 08:52:47;;;;;;;24.97;13.37;;;;;;;;;;4432878;32;20236;-55
2021/11/09 09:05:39;;;;;;;23.07;12.07;;;;;;;;;;4427939;32;20267;-55
2021/11/09 09:08:04;;;;;;;26.10;11.50;;;;;;;;;;4415873;32;20273;-57
2021/11/09 09:10:30;;;;;;;18.73;11.57;;;;;;;;;;4417858;32;20244;-55
2021/11/09 09:12:55;;;;;;;29.07;12.73;;;;;;;;;;4417293;32;20391;-56
2021/11/09 09:15:21;;;;;;;20.45;12.82;;;;;;;;;;4417757;32;20718;-55
2021/11/09 09:17:47;;;;;;;22.13;11.90;;;;;;;;;;4417677;32;20253;-57
2021/11/09 09:20:25;;;;;;;23.00;12.00;;;;;;;;;;4416819;32;20311;-56
2021/11/09 09:53:08;;;;;;;19.27;12.00;;;;;;;;;;4403908;32;20241;-57
2021/11/09 09:58:06;;;;;;;32.77;14.53;;;;;;;;;;4416897;32;20267;-56
2021/11/09 10:00:33;;;;;;;22.17;12.75;;;;;;;;;;4396465;32;20293;-55
2021/11/09 10:02:59;;;;;;;20.37;12.27;;;;;;;;;;4399381;32;20328;-55
2021/11/09 10:05:26;;;;;;;22.27;12.77;;;;;;;;;;4401746;32;20316;-56
2021/11/09 10:07:55;;;;;;;23.95;11.55;;;;;;;;;;4401464;32;20249;-56
2021/11/09 10:10:24;;;;;;;27.37;12.10;;;;;;;;;;4401179;32;20214;-56
2021/11/09 10:13:11;;;;;;;18.73;11.15;;;;;;;;;;4401116;32;20288;-56
2021/11/09 10:15:49;;;;;;;20.67;11.25;;;;;;;;;;4402934;32;20201;-57
2021/11/09 10:18:18;;;;;;;16.80;10.60;;;;;;;;;;4404401;32;20701;-57
2021/11/09 10:20:49;;;;;;;20.58;13.40;;;;;;;;;;4402127;32;20378;-56
2021/11/09 10:23:20;;;;;;;26.90;10.90;;;;;;;;;;4403791;32;20292;-57
2021/11/09 10:25:47;;;;;;;16.33;11.55;;;;;;;;;;4403265;32;20312;-56
2021/11/09 10:28:18;;;;;;;19.40;10.93;;;;;;;;;;4402518;32;20241;-55
2021/11/09 10:30:45;;;;;;;16.02;10.70;;;;;;;;;;4403712;32;20259;-57
2021/11/09 10:33:16;;;;;;;15.02;9.57;;;;;;;;;;4402347;32;20245;-56
2021/11/09 10:35:43;;;;;;;12.20;8.48;;;;;;;;;;4403940;32;20528;-55
2021/11/09 10:38:10;;;;;;;12.00;8.23;;;;;;;;;;4403481;32;20365;-56
2021/11/09 10:40:44;;;;;;;16.12;8.38;;;;;;;;;;4403617;32;20225;-56
2021/11/09 10:43:11;;;;;;;19.98;9.18;;;;;;;;;;4403588;32;20237;-55
2021/11/09 10:45:39;;;;;;;13.43;7.37;;;;;;;;;;4403616;32;20300;-56
2021/11/09 10:48:11;;;;;;;14.77;8.98;;;;;;;;;;4403324;32;20225;-55
2021/11/09 10:50:39;;;;;;;11.27;7.47;;;;;;;;;;4403622;32;20630;-55
2021/11/09 10:53:10;;;;;;;13.65;7.80;;;;;;;;;;4403227;32;20344;-55
2021/11/09 10:55:47;;;;;;;14.67;8.47;;;;;;;;;;4403224;32;20209;-55
2021/11/09 10:58:23;;;;;;;11.73;8.25;;;;;;;;;;4403083;32;20683;-54
2021/11/09 11:06:24;;;;;;;14.98;8.50;;;;;;;;;;4374330;32;20359;-56
2021/11/09 11:09:07;;;;;;;17.63;9.33;;;;;;;;;;4311326;32;21037;-56
2021/11/09 11:11:37;;;;;;;13.47;6.67;;;;;;;;;;4311417;32;20335;-56
2021/11/09 11:14:05;;;;;;;17.77;8.63;;;;;;;;;;4399703;32;20321;-55
2021/11/09 11:16:37;;;;;;;13.90;8.77;;;;;;;;;;4402283;32;20312;-56
2021/11/09 11:19:03;;;;;;;19.70;9.07;;;;;;;;;;4398298;32;20237;-55
2021/11/09 11:21:29;;;;;;;12.77;7.97;;;;;;;;;;4396791;32;20418;-56
2021/11/09 11:23:55;;;;;;;11.20;8.23;;;;;;;;;;4395959;32;20384;-56
2021/11/09 11:26:21;;;;;;;10.17;6.50;;;;;;;;;;4398459;32;20275;-56
2021/11/09 11:28:50;;;;;;;9.83;6.97;;;;;;;;;;4400380;32;20268;-56
2021/11/09 11:31:16;;;;;;;13.67;7.53;;;;;;;;;;4401097;32;20310;-55
2021/11/09 11:33:43;;;;;;;16.87;8.50;;;;;;;;;;4398251;32;20310;-56
2021/11/09 11:36:10;;;;;;;13.97;8.10;;;;;;;;;;4400631;32;20336;-54
2021/11/09 11:38:41;;;;;;;19.07;8.13;;;;;;;;;;4400122;32;20256;-55
2021/11/09 11:41:07;;;;;;;11.73;7.40;;;;;;;;;;4402486;32;20233;-55
2021/11/09 11:43:47;;;;;;;8.77;6.43;;;;;;;;;;4402227;32;20288;-55
2021/11/09 11:46:14;;;;;;;62.17;35.17;;;;;;;;;;4401519;32;20727;-54
2021/11/09 11:49:09;;;;;;;13.20;8.43;;;;;;;;;;4387123;32;20703;-55
2021/11/09 11:51:57;;;;;;;13.83;8.60;;;;;;;;;;4387281;32;20283;-55
2021/11/09 11:54:43;;;;;;;12.10;8.30;;;;;;;;;;4381478;32;20249;-55
2021/11/09 11:57:09;;;;;;;10.60;6.67;;;;;;;;;;4386959;32;20670;-56
2021/11/09 11:59:35;;;;;;;9.20;6.03;;;;;;;;;;4386872;32;20606;-55
2021/11/09 12:02:06;;;;;;;6.30;5.03;;;;;;;;;;4386137;32;20336;-56
2021/11/09 12:04:40;;;;;;;9.23;6.03;;;;;;;;;;4386342;32;20229;-55
2021/11/09 12:07:07;;;;;;;13.87;9.07;;;;;;;;;;4398854;32;20319;-55
2021/11/09 12:09:36;;;;;;;20.60;10.83;;;;;;;;;;4400430;32;20565;-57
2021/11/09 12:12:17;;;;;;;19.40;10.90;;;;;;;;;;4400738;32;20563;-55
2021/11/09 12:14:50;;;;;;;12.87;10.10;;;;;;;;;;4401387;32;20221;-55
2021/11/09 12:17:35;;;;;;;15.70;8.17;;;;;;;;;;4400533;32;20324;-55
2021/11/09 12:20:38;;;;;;;13.67;10.07;;;;;;;;;;4402405;32;20667;-54
2021/11/09 12:23:15;;;;;;;13.13;7.90;;;;;;;;;;4386928;32;20210;-55
2021/11/09 12:25:41;;;;;;;12.23;7.30;;;;;;;;;;4389200;32;20237;-55
2021/11/09 12:28:11;;;;;;;13.40;9.83;;;;;;;;;;4386359;32;20783;-55
2021/11/09 12:30:53;;;;;;;31.93;20.70;;;;;;;;;;4386640;32;20300;-57
2021/11/09 12:33:24;;;;;;;33.97;24.10;;;;;;;;;;4386761;32;20674;-56
2021/11/09 12:35:56;;;;;;;16.00;11.97;;;;;;;;;;4387351;32;20262;-56
2021/11/09 12:38:30;;;;;;;15.83;9.10;;;;;;;;;;4386274;32;20650;-57
2021/11/09 12:40:57;;;;;;;12.83;7.77;;;;;;;;;;4395644;32;20553;-56
2021/11/09 12:43:32;;;;;;;11.43;8.50;;;;;;;;;;4402070;32;20201;-56
2021/11/09 12:46:08;;;;;;;7.27;5.67;;;;;;;;;;4399493;32;20779;-54
2021/11/09 12:48:37;;;;;;;9.73;6.70;;;;;;;;;;4392117;32;20252;-55
2021/11/09 12:51:10;;;;;;;9.40;6.30;;;;;;;;;;4384721;32;20315;-55
2021/11/09 12:53:43;;;;;;;11.37;8.10;;;;;;;;;;4384829;32;20476;-54
2021/11/09 12:56:09;;;;;;;9.90;7.03;;;;;;;;;;4385203;32;20233;-55
2021/11/09 12:59:07;;;;;;;13.27;7.20;;;;;;;;;;4385866;32;20814;-55
2021/11/09 13:01:43;;;;;;;12.37;7.93;;;;;;;;;;4400709;32;20281;-55
2021/11/09 13:07:46;;;;;;;9.83;6.10;;;;;;;;;;4337456;33;20750;-55
2021/11/09 13:10:38;;;;;;;18.13;8.33;;;;;;;;;;4338501;33;20234;-55
2021/11/09 13:13:03;;;;;;;17.17;9.20;;;;;;;;;;4391217;32;20257;-55
2021/11/09 13:15:28;;;;;;;14.33;9.40;;;;;;;;;;4400624;32;20716;-55
2021/11/09 13:18:04;;;;;;;13.37;7.90;;;;;;;;;;4400676;32;20760;-55
2021/11/09 13:20:37;;;;;;;8.43;5.97;;;;;;;;;;4401006;32;20196;-55
2021/11/09 13:23:09;;;;;;;17.40;12.53;;;;;;;;;;4401305;32;20605;-55
2021/11/09 13:25:36;;;;;;;10.73;7.47;;;;;;;;;;4399186;32;20257;-55
2021/11/09 13:28:12;;;;;;;18.53;7.47;;;;;;;;;;4399505;32;20253;-56
2021/11/09 13:30:42;;;;;;;11.33;6.83;;;;;;;;;;4400949;32;20228;-56
2021/11/09 13:33:08;;;;;;;7.70;4.40;;;;;;;;;;4400439;32;20229;-55
2021/11/09 13:35:37;;;;;;;10.20;6.43;;;;;;;;;;4400683;32;20297;-54
2021/11/09 13:38:15;;;;;;;10.03;5.57;;;;;;;;;;4399192;32;20261;-56
2021/11/09 13:40:50;;;;;;;10.47;5.20;;;;;;;;;;4400529;32;20217;-55
2021/11/09 13:43:19;;;;;;;5.27;4.13;;;;;;;;;;4398950;32;20380;-55
2021/11/09 13:45:44;;;;;;;6.70;3.97;;;;;;;;;;4400523;32;20233;-55
2021/11/09 13:48:17;;;;;;;7.87;4.63;;;;;;;;;;4400734;32;20574;-55
2021/11/09 13:50:44;;;;;;;8.10;6.37;;;;;;;;;;4402472;32;20568;-55
2021/11/09 13:53:10;;;;;;;5.13;4.07;;;;;;;;;;4403812;32;20219;-55
2021/11/09 13:55:38;;;;;;;4.73;3.67;;;;;;;;;;4403923;32;20293;-55
2021/11/09 13:58:04;;;;;;;10.53;5.97;;;;;;;;;;4402326;32;20668;-55
2021/11/09 14:00:42;;;;;;;8.63;5.97;;;;;;;;;;4403677;32;20300;-55
2021/11/09 14:04:06;;;;;;;10.47;4.77;;;;;;;;;;4403384;32;20213;-55
2021/11/09 14:06:24;;;;;;;6.50;4.40;;;;;;;;;;4395265;32;20265;-56
2021/11/09 14:16:47;;;;;;;12.07;5.73;;;;;;;;;;4403256;32;20226;-55
2021/11/09 14:19:15;;;;;;;15.13;7.33;;;;;;;;;;4403221;32;20677;-55
2021/11/09 14:21:45;;;;;;;14.93;9.40;;;;;;;;;;4402744;32;20353;-56
2021/11/09 14:24:37;;;;;;;15.90;7.40;;;;;;;;;;4399010;32;20269;-56
2021/11/09 14:27:14;;;;;;;6.67;4.90;;;;;;;;;;4387849;32;20295;-55
2021/11/09 14:29:51;;;;;;;8.07;4.50;;;;;;;;;;4387617;32;20646;-56
2021/11/09 14:32:22;;;;;;;9.80;7.00;;;;;;;;;;4387515;32;20747;-56
2021/11/09 14:37:58;;;;;;;9.90;6.30;;;;;;;;;;4387384;32;20241;-55
2021/11/09 14:40:33;;;;;;;15.90;9.90;;;;;;;;;;4389101;32;20237;-55
2021/11/09 14:43:12;;;;;;;19.93;11.60;;;;;;;;;;4387712;32;20666;-56
2021/11/09 14:48:19;;;;;;;12.57;9.10;;;;;;;;;;4402791;32;20210;-56
2021/11/09 14:53:45;;;;;;;9.37;6.00;;;;;;;;;;4402909;32;20690;-55
2021/11/09 14:56:20;;;;;;;43.87;25.03;;;;;;;;;;4402702;32;20295;-55
2021/11/09 14:58:53;;;;;;;29.40;16.73;;;;;;;;;;4402639;32;20240;-54
2021/11/09 15:01:39;;;;;;;20.80;11.50;;;;;;;;;;4402421;32;20625;-55
2021/11/09 15:04:33;;;;;;;28.33;15.27;;;;;;;;;;4402865;32;20288;-55
2021/11/09 15:31:21;;;;;;;14.10;9.93;;;;;;;;;;4401620;32;20497;-55
2021/11/09 15:39:25;;;;;;;13.13;7.77;;;;;;;;;;4401834;32;20258;-55
2021/11/09 15:41:51;;;;;;;15.13;9.30;;;;;;;;;;4402085;32;20355;-55
2021/11/09 15:44:16;;;;;;;9.10;6.97;;;;;;;;;;4401872;32;20714;-57
2021/11/09 15:46:43;;;;;;;9.00;6.90;;;;;;;;;;4402087;32;20257;-54
2021/11/09 15:49:09;;;;;;;7.70;6.43;;;;;;;;;;4401871;32;20201;-56
2021/11/09 15:51:37;;;;;;;8.93;6.37;;;;;;;;;;4402092;32;20217;-55
2021/11/09 15:54:03;;;;;;;15.60;9.30;;;;;;;;;;4400034;32;20691;-56
2021/11/09 15:56:28;;;;;;;17.03;8.87;;;;;;;;;;4401667;32;20237;-55
2021/11/09 15:58:55;;;;;;;17.50;10.20;;;;;;;;;;4401437;32;20392;-56
2021/11/09 16:01:22;;;;;;;32.13;18.07;;;;;;;;;;4399860;32;20735;-55
2021/11/09 16:03:47;;;;;;;22.87;12.60;;;;;;;;;;4401205;32;20261;-56
2021/11/09 16:06:13;;;;;;;27.80;15.90;;;;;;;;;;4400796;32;20363;-57
2021/11/09 16:08:39;;;;;;;26.03;12.87;;;;;;;;;;4401201;32;20806;-55
2021/11/09 16:11:13;;;;;;;17.37;8.90;;;;;;;;;;4400957;32;20344;-55
2021/11/09 16:13:40;;;;;;;23.50;12.70;;;;;;;;;;4400791;32;20559;-55
2021/11/09 16:16:07;;;;;;;16.60;8.33;;;;;;;;;;4400753;32;20225;-55
2021/11/09 16:18:32;;;;;;;21.50;11.93;;;;;;;;;;4401387;32;20237;-56
2021/11/09 16:20:58;;;;;;;19.53;9.63;;;;;;;;;;4401739;32;20336;-55
2021/11/09 16:23:25;;;;;;;16.13;9.10;;;;;;;;;;4401154;32;20346;-56
2021/11/09 16:25:52;;;;;;;14.90;9.57;;;;;;;;;;4398360;32;20228;-55
2021/11/09 16:28:17;;;;;;;29.40;13.70;;;;;;;;;;4401159;32;20272;-55
2021/11/09 16:30:43;;;;;;;42.97;20.17;;;;;;;;;;4401314;32;20701;-55
2021/11/09 16:33:35;;;;;;;21.87;12.60;;;;;;;;;;4400980;32;20263;-55
2021/11/09 16:38:33;;;;;;;21.37;11.47;;;;;;;;;;4400608;32;20214;-55
2021/11/09 16:41:01;;;;;;;11.90;8.20;;;;;;;;;;4400700;32;20275;-55
2021/11/09 16:43:35;;;;;;;18.00;8.03;;;;;;;;;;4400884;32;20357;-56
2021/11/09 16:49:08;;;;;;;48.83;26.10;;;;;;;;;;4400878;32;20696;-54
2021/11/09 16:51:40;;;;;;;32.07;18.93;;;;;;;;;;4400533;32;20325;-56
2021/11/09 16:54:12;;;;;;;22.13;13.00;;;;;;;;;;4400299;32;20539;-55
2021/11/09 16:59:38;;;;;;;18.60;12.23;;;;;;;;;;4393669;32;20259;-56
2021/11/09 18:15:17;;;;;;;12.10;6.90;;;;;;;;;;4401059;32;20249;-56
2021/11/09 18:20:28;;;;;;;10.60;4.83;;;;;;;;;;4401431;32;20228;-55
2021/11/09 18:22:57;;;;;;;17.97;6.77;;;;;;;;;;4401235;32;20289;-55
2021/11/09 18:25:28;;;;;;;12.00;5.97;;;;;;;;;;4391226;32;20245;-56
2021/11/09 18:27:55;;;;;;;12.57;6.87;;;;;;;;;;4386438;32;20257;-55
2021/11/09 18:30:33;;;;;;;7.53;5.17;;;;;;;;;;4386578;32;20251;-56
2021/11/09 18:33:00;;;;;;;7.60;4.90;;;;;;;;;;4386536;32;20267;-56
2021/11/09 18:35:27;;;;;;;7.43;5.00;;;;;;;;;;4386183;32;20300;-55
2021/11/09 18:37:59;;;;;;;11.67;6.47;;;;;;;;;;4388642;32;20279;-55
2021/11/09 18:40:26;;;;;;;13.13;9.13;;;;;;;;;;4394351;32;20247;-55
2021/11/09 18:42:52;;;;;;;9.47;5.03;;;;;;;;;;4404042;32;20228;-55
2021/11/09 18:45:18;;;;;;;10.37;6.23;;;;;;;;;;4403676;32;20252;-56
2021/11/09 18:47:47;;;;;;;14.83;7.30;;;;;;;;;;4403526;32;20666;-55
2021/11/09 18:50:14;;;;;;;18.27;8.37;;;;;;;;;;4403769;32;20599;-55
2021/11/09 18:52:40;;;;;;;9.03;6.50;;;;;;;;;;4403047;32;20307;-56
2021/11/09 18:55:06;;;;;;;8.43;5.60;;;;;;;;;;4403077;32;20344;-57
2021/11/09 18:57:31;;;;;;;11.77;7.07;;;;;;;;;;4403882;32;20232;-56
2021/11/09 18:59:58;;;;;;;8.13;5.47;;;;;;;;;;4403549;32;20458;-55
2021/11/09 19:02:31;;;;;;;8.80;5.70;;;;;;;;;;4403289;32;20641;-55
2021/11/09 19:04:57;;;;;;;8.53;5.57;;;;;;;;;;4403620;32;20303;-56
2021/11/09 19:07:23;;;;;;;9.47;5.97;;;;;;;;;;4403599;32;20257;-55
2021/11/09 19:09:49;;;;;;;9.43;6.20;;;;;;;;;;4403357;32;20307;-57
2021/11/09 19:12:15;;;;;;;12.17;7.60;;;;;;;;;;4394858;32;20248;-54
2021/11/09 19:14:40;;;;;;;12.67;8.07;;;;;;;;;;4386097;32;20451;-56
2021/11/09 19:17:06;;;;;;;13.03;7.93;;;;;;;;;;4388284;32;20297;-55
2021/11/09 19:19:32;;;;;;;18.80;9.83;;;;;;;;;;4388175;32;20713;-55
2021/11/09 19:21:57;;;;;;;17.73;12.57;;;;;;;;;;4387374;32;20267;-55
2021/11/09 19:24:22;;;;;;;20.27;13.93;;;;;;;;;;4402684;32;20308;-56